sensor_id;sensor_type;location;lat;lon;timestamp;P1;durP1;ratioP1;P2;durP2;ratioP2
26014;SDS011;13793;55.388;37.844;2022-08-19T00:01:41;14.45;;;9.80;;
26014;SDS011;13793;55.388;37.844;2022-08-19T00:04:13;14.05;;;9.70;;
26014;SDS011;13793;55.388;37.844;2022-08-19T00:06:45;13.45;;;9.10;;
26014;SDS011;13793;55.388;37.844;2022-08-19T00:09:17;11.38;;;7.67;;
26014;SDS011;13793;55.388;37.844;2022-08-19T00:11:48;10.70;;;7.33;;
26014;SDS011;13793;55.388;37.844;2022-08-19T00:14:20;12.07;;;7.60;;
26014;SDS011;13793;55.388;37.844;2022-08-19T00:16:52;11.57;;;7.12;;
26014;SDS011;13793;55.388;37.844;2022-08-19T00:19:23;10.28;;;6.50;;
26014;SDS011;13793;55.388;37.844;2022-08-19T00:21:55;8.78;;;6.60;;
26014;SDS011;13793;55.388;37.844;2022-08-19T00:24:26;7.58;;;5.87;;
26014;SDS011;13793;55.388;37.844;2022-08-19T00:26:57;7.40;;;4.97;;
26014;SDS011;13793;55.388;37.844;2022-08-19T00:29:30;6.70;;;4.95;;
26014;SDS011;13793;55.388;37.844;2022-08-19T00:32:00;6.97;;;4.70;;
26014;SDS011;13793;55.388;37.844;2022-08-19T00:34:31;6.60;;;4.12;;
26014;SDS011;13793;55.388;37.844;2022-08-19T00:37:01;6.65;;;4.00;;
26014;SDS011;13793;55.388;37.844;2022-08-19T00:39:32;6.12;;;3.90;;
26014;SDS011;13793;55.388;37.844;2022-08-19T00:42:04;9.43;;;3.77;;
26014;SDS011;13793;55.388;37.844;2022-08-19T00:44:36;7.28;;;4.17;;
26014;SDS011;13793;55.388;37.844;2022-08-19T00:47:06;8.48;;;4.67;;
26014;SDS011;13793;55.388;37.844;2022-08-19T00:49:41;7.22;;;4.70;;
26014;SDS011;13793;55.388;37.844;2022-08-19T00:52:28;6.10;;;4.20;;
26014;SDS011;13793;55.388;37.844;2022-08-19T00:55:03;8.13;;;4.10;;
26014;SDS011;13793;55.388;37.844;2022-08-19T00:57:38;7.00;;;4.37;;
26014;SDS011;13793;55.388;37.844;2022-08-19T01:00:10;6.75;;;4.45;;
26014;SDS011;13793;55.388;37.844;2022-08-19T01:02:43;5.72;;;4.45;;
26014;SDS011;13793;55.388;37.844;2022-08-19T01:05:18;6.55;;;4.55;;
26014;SDS011;13793;55.388;37.844;2022-08-19T01:07:50;4.90;;;4.33;;
26014;SDS011;13793;55.388;37.844;2022-08-19T01:10:21;8.05;;;4.80;;
26014;SDS011;13793;55.388;37.844;2022-08-19T01:12:53;8.73;;;4.15;;
26014;SDS011;13793;55.388;37.844;2022-08-19T01:15:35;7.83;;;4.35;;
26014;SDS011;13793;55.388;37.844;2022-08-19T01:18:03;10.45;;;4.30;;
26014;SDS011;13793;55.388;37.844;2022-08-19T01:20:39;6.78;;;4.40;;
26014;SDS011;13793;55.388;37.844;2022-08-19T01:23:11;6.00;;;3.85;;
26014;SDS011;13793;55.388;37.844;2022-08-19T01:25:44;6.53;;;4.33;;
26014;SDS011;13793;55.388;37.844;2022-08-19T01:28:17;7.50;;;4.37;;
26014;SDS011;13793;55.388;37.844;2022-08-19T01:30:51;8.68;;;4.00;;
26014;SDS011;13793;55.388;37.844;2022-08-19T01:33:22;7.40;;;4.00;;
26014;SDS011;13793;55.388;37.844;2022-08-19T01:35:53;5.45;;;4.05;;
26014;SDS011;13793;55.388;37.844;2022-08-19T01:38:25;7.72;;;4.42;;
26014;SDS011;13793;55.388;37.844;2022-08-19T01:40:57;5.58;;;4.03;;
26014;SDS011;13793;55.388;37.844;2022-08-19T01:43:28;5.67;;;3.75;;
26014;SDS011;13793;55.388;37.844;2022-08-19T01:45:59;8.15;;;4.20;;
26014;SDS011;13793;55.388;37.844;2022-08-19T01:48:40;5.22;;;3.95;;
26014;SDS011;13793;55.388;37.844;2022-08-19T01:51:07;8.78;;;4.35;;
26014;SDS011;13793;55.388;37.844;2022-08-19T01:53:39;8.75;;;3.92;;
26014;SDS011;13793;55.388;37.844;2022-08-19T01:56:09;4.62;;;4.03;;
26014;SDS011;13793;55.388;37.844;2022-08-19T01:58:41;7.08;;;4.37;;
26014;SDS011;13793;55.388;37.844;2022-08-19T02:01:15;7.78;;;4.05;;
26014;SDS011;13793;55.388;37.844;2022-08-19T02:03:45;8.63;;;4.17;;
26014;SDS011;13793;55.388;37.844;2022-08-19T02:06:16;6.35;;;4.17;;
26014;SDS011;13793;55.388;37.844;2022-08-19T02:08:46;7.78;;;4.08;;
26014;SDS011;13793;55.388;37.844;2022-08-19T02:11:37;5.20;;;3.75;;
26014;SDS011;13793;55.388;37.844;2022-08-19T02:13:59;4.65;;;3.33;;
26014;SDS011;13793;55.388;37.844;2022-08-19T02:16:33;5.95;;;3.77;;
26014;SDS011;13793;55.388;37.844;2022-08-19T02:19:04;6.20;;;4.10;;
26014;SDS011;13793;55.388;37.844;2022-08-19T02:21:35;5.72;;;3.50;;
26014;SDS011;13793;55.388;37.844;2022-08-19T02:24:06;6.12;;;3.50;;
26014;SDS011;13793;55.388;37.844;2022-08-19T02:26:36;5.95;;;3.67;;
26014;SDS011;13793;55.388;37.844;2022-08-19T02:29:07;7.45;;;3.92;;
26014;SDS011;13793;55.388;37.844;2022-08-19T02:31:39;9.03;;;4.15;;
26014;SDS011;13793;55.388;37.844;2022-08-19T02:34:09;5.67;;;3.40;;
26014;SDS011;13793;55.388;37.844;2022-08-19T02:36:40;4.78;;;3.72;;
26014;SDS011;13793;55.388;37.844;2022-08-19T02:39:11;5.85;;;3.60;;
26014;SDS011;13793;55.388;37.844;2022-08-19T02:41:41;10.10;;;4.05;;
26014;SDS011;13793;55.388;37.844;2022-08-19T02:44:12;7.08;;;3.70;;
26014;SDS011;13793;55.388;37.844;2022-08-19T02:46:44;5.35;;;3.80;;
26014;SDS011;13793;55.388;37.844;2022-08-19T02:49:15;8.98;;;3.77;;
26014;SDS011;13793;55.388;37.844;2022-08-19T02:51:46;7.22;;;3.62;;
26014;SDS011;13793;55.388;37.844;2022-08-19T02:54:18;7.58;;;4.03;;
26014;SDS011;13793;55.388;37.844;2022-08-19T02:56:52;9.28;;;3.65;;
26014;SDS011;13793;55.388;37.844;2022-08-19T02:59:22;6.62;;;3.67;;
26014;SDS011;13793;55.388;37.844;2022-08-19T03:01:54;6.75;;;3.67;;
26014;SDS011;13793;55.388;37.844;2022-08-19T03:04:28;8.53;;;3.52;;
26014;SDS011;13793;55.388;37.844;2022-08-19T03:06:59;5.05;;;3.33;;
26014;SDS011;13793;55.388;37.844;2022-08-19T03:09:31;5.75;;;3.72;;
26014;SDS011;13793;55.388;37.844;2022-08-19T03:12:02;7.17;;;3.85;;
26014;SDS011;13793;55.388;37.844;2022-08-19T03:14:33;6.10;;;3.37;;
26014;SDS011;13793;55.388;37.844;2022-08-19T03:17:04;5.42;;;3.55;;
26014;SDS011;13793;55.388;37.844;2022-08-19T03:19:36;5.17;;;3.40;;
26014;SDS011;13793;55.388;37.844;2022-08-19T03:22:07;9.03;;;3.45;;
26014;SDS011;13793;55.388;37.844;2022-08-19T03:24:38;6.40;;;3.52;;
26014;SDS011;13793;55.388;37.844;2022-08-19T03:27:08;5.33;;;3.30;;
26014;SDS011;13793;55.388;37.844;2022-08-19T03:29:39;4.50;;;3.22;;
26014;SDS011;13793;55.388;37.844;2022-08-19T03:32:10;7.85;;;3.33;;
26014;SDS011;13793;55.388;37.844;2022-08-19T03:34:44;6.10;;;3.30;;
26014;SDS011;13793;55.388;37.844;2022-08-19T03:37:14;6.28;;;3.47;;
26014;SDS011;13793;55.388;37.844;2022-08-19T03:39:45;6.90;;;3.62;;
26014;SDS011;13793;55.388;37.844;2022-08-19T03:42:15;8.20;;;3.40;;
26014;SDS011;13793;55.388;37.844;2022-08-19T03:44:46;9.53;;;3.62;;
26014;SDS011;13793;55.388;37.844;2022-08-19T03:47:16;5.33;;;3.60;;
26014;SDS011;13793;55.388;37.844;2022-08-19T03:49:47;10.18;;;3.50;;
26014;SDS011;13793;55.388;37.844;2022-08-19T03:52:18;6.33;;;2.95;;
26014;SDS011;13793;55.388;37.844;2022-08-19T03:54:48;9.50;;;4.05;;
26014;SDS011;13793;55.388;37.844;2022-08-19T03:57:19;4.62;;;3.55;;
26014;SDS011;13793;55.388;37.844;2022-08-19T03:59:49;6.17;;;3.70;;
26014;SDS011;13793;55.388;37.844;2022-08-19T04:02:20;6.65;;;3.30;;
26014;SDS011;13793;55.388;37.844;2022-08-19T04:04:52;5.22;;;3.40;;
26014;SDS011;13793;55.388;37.844;2022-08-19T04:07:23;6.25;;;3.58;;
26014;SDS011;13793;55.388;37.844;2022-08-19T04:09:53;5.03;;;3.62;;
26014;SDS011;13793;55.388;37.844;2022-08-19T04:12:24;5.80;;;3.47;;
26014;SDS011;13793;55.388;37.844;2022-08-19T04:14:55;5.15;;;3.35;;
26014;SDS011;13793;55.388;37.844;2022-08-19T04:17:26;6.70;;;3.40;;
26014;SDS011;13793;55.388;37.844;2022-08-19T04:19:57;4.55;;;3.22;;
26014;SDS011;13793;55.388;37.844;2022-08-19T04:22:29;4.53;;;3.45;;
26014;SDS011;13793;55.388;37.844;2022-08-19T04:25:00;6.87;;;3.15;;
26014;SDS011;13793;55.388;37.844;2022-08-19T04:27:30;5.65;;;3.87;;
26014;SDS011;13793;55.388;37.844;2022-08-19T04:30:02;7.70;;;3.55;;
26014;SDS011;13793;55.388;37.844;2022-08-19T04:32:33;3.62;;;3.15;;
26014;SDS011;13793;55.388;37.844;2022-08-19T04:35:04;6.37;;;3.33;;
26014;SDS011;13793;55.388;37.844;2022-08-19T04:37:35;7.12;;;3.50;;
26014;SDS011;13793;55.388;37.844;2022-08-19T04:40:07;6.83;;;3.58;;
26014;SDS011;13793;55.388;37.844;2022-08-19T04:42:56;7.25;;;3.58;;
26014;SDS011;13793;55.388;37.844;2022-08-19T04:45:27;5.85;;;3.20;;
26014;SDS011;13793;55.388;37.844;2022-08-19T04:47:58;10.38;;;3.58;;
26014;SDS011;13793;55.388;37.844;2022-08-19T04:50:33;3.47;;;2.95;;
26014;SDS011;13793;55.388;37.844;2022-08-19T04:53:04;4.67;;;3.50;;
26014;SDS011;13793;55.388;37.844;2022-08-19T04:55:34;7.47;;;3.40;;
26014;SDS011;13793;55.388;37.844;2022-08-19T04:58:06;3.90;;;3.30;;
26014;SDS011;13793;55.388;37.844;2022-08-19T05:00:38;5.45;;;3.50;;
26014;SDS011;13793;55.388;37.844;2022-08-19T05:03:08;5.25;;;3.20;;
26014;SDS011;13793;55.388;37.844;2022-08-19T05:05:40;7.03;;;3.22;;
26014;SDS011;13793;55.388;37.844;2022-08-19T05:08:11;8.43;;;3.83;;
26014;SDS011;13793;55.388;37.844;2022-08-19T05:10:42;6.87;;;3.27;;
26014;SDS011;13793;55.388;37.844;2022-08-19T05:13:14;8.25;;;3.60;;
26014;SDS011;13793;55.388;37.844;2022-08-19T05:15:55;5.53;;;3.12;;
26014;SDS011;13793;55.388;37.844;2022-08-19T05:18:26;6.40;;;3.40;;
26014;SDS011;13793;55.388;37.844;2022-08-19T05:21:16;5.87;;;3.27;;
26014;SDS011;13793;55.388;37.844;2022-08-19T05:24:06;4.62;;;3.17;;
26014;SDS011;13793;55.388;37.844;2022-08-19T05:26:44;4.05;;;3.27;;
26014;SDS011;13793;55.388;37.844;2022-08-19T05:29:10;6.58;;;3.58;;
26014;SDS011;13793;55.388;37.844;2022-08-19T05:31:41;4.53;;;3.37;;
26014;SDS011;13793;55.388;37.844;2022-08-19T05:34:12;6.10;;;3.25;;
26014;SDS011;13793;55.388;37.844;2022-08-19T05:36:44;8.85;;;3.60;;
26014;SDS011;13793;55.388;37.844;2022-08-19T05:39:18;4.53;;;3.20;;
26014;SDS011;13793;55.388;37.844;2022-08-19T05:41:51;6.25;;;3.45;;
26014;SDS011;13793;55.388;37.844;2022-08-19T05:44:23;8.50;;;3.87;;
26014;SDS011;13793;55.388;37.844;2022-08-19T05:46:55;5.95;;;3.33;;
26014;SDS011;13793;55.388;37.844;2022-08-19T05:49:28;5.22;;;3.50;;
26014;SDS011;13793;55.388;37.844;2022-08-19T05:52:12;5.28;;;3.83;;
26014;SDS011;13793;55.388;37.844;2022-08-19T05:54:39;4.67;;;3.60;;
26014;SDS011;13793;55.388;37.844;2022-08-19T05:57:11;9.90;;;3.77;;
26014;SDS011;13793;55.388;37.844;2022-08-19T05:59:41;7.75;;;3.40;;
26014;SDS011;13793;55.388;37.844;2022-08-19T06:02:13;4.15;;;3.35;;
26014;SDS011;13793;55.388;37.844;2022-08-19T06:04:44;5.33;;;3.60;;
26014;SDS011;13793;55.388;37.844;2022-08-19T06:07:15;5.30;;;3.70;;
26014;SDS011;13793;55.388;37.844;2022-08-19T06:09:48;5.10;;;3.58;;
26014;SDS011;13793;55.388;37.844;2022-08-19T06:12:19;7.53;;;3.70;;
26014;SDS011;13793;55.388;37.844;2022-08-19T06:14:51;5.78;;;3.25;;
26014;SDS011;13793;55.388;37.844;2022-08-19T06:17:24;5.72;;;3.47;;
26014;SDS011;13793;55.388;37.844;2022-08-19T06:19:54;5.33;;;3.47;;
26014;SDS011;13793;55.388;37.844;2022-08-19T06:22:25;3.95;;;3.58;;
26014;SDS011;13793;55.388;37.844;2022-08-19T06:24:56;6.78;;;3.77;;
26014;SDS011;13793;55.388;37.844;2022-08-19T06:27:28;6.67;;;3.72;;
26014;SDS011;13793;55.388;37.844;2022-08-19T06:30:01;7.00;;;3.62;;
26014;SDS011;13793;55.388;37.844;2022-08-19T06:32:32;7.67;;;3.67;;
26014;SDS011;13793;55.388;37.844;2022-08-19T06:35:02;6.55;;;4.12;;
26014;SDS011;13793;55.388;37.844;2022-08-19T06:37:34;5.60;;;3.58;;
26014;SDS011;13793;55.388;37.844;2022-08-19T06:40:05;10.08;;;3.72;;
26014;SDS011;13793;55.388;37.844;2022-08-19T06:42:42;8.38;;;3.60;;
26014;SDS011;13793;55.388;37.844;2022-08-19T06:45:12;6.40;;;3.77;;
26014;SDS011;13793;55.388;37.844;2022-08-19T06:47:43;5.50;;;3.30;;
26014;SDS011;13793;55.388;37.844;2022-08-19T06:50:15;6.25;;;3.50;;
26014;SDS011;13793;55.388;37.844;2022-08-19T06:52:47;9.88;;;4.03;;
26014;SDS011;13793;55.388;37.844;2022-08-19T06:55:17;5.95;;;3.37;;
26014;SDS011;13793;55.388;37.844;2022-08-19T06:57:48;4.37;;;3.67;;
26014;SDS011;13793;55.388;37.844;2022-08-19T07:00:20;4.55;;;3.25;;
26014;SDS011;13793;55.388;37.844;2022-08-19T07:02:51;6.83;;;3.60;;
26014;SDS011;13793;55.388;37.844;2022-08-19T07:05:22;6.65;;;3.87;;
26014;SDS011;13793;55.388;37.844;2022-08-19T07:07:52;7.03;;;3.65;;
26014;SDS011;13793;55.388;37.844;2022-08-19T07:10:24;3.67;;;3.37;;
26014;SDS011;13793;55.388;37.844;2022-08-19T07:12:55;9.10;;;3.87;;
26014;SDS011;13793;55.388;37.844;2022-08-19T07:15:26;9.30;;;4.00;;
26014;SDS011;13793;55.388;37.844;2022-08-19T07:17:57;7.92;;;3.50;;
26014;SDS011;13793;55.388;37.844;2022-08-19T07:20:28;4.17;;;3.55;;
26014;SDS011;13793;55.388;37.844;2022-08-19T07:22:58;5.50;;;3.70;;
26014;SDS011;13793;55.388;37.844;2022-08-19T07:25:30;5.50;;;3.42;;
26014;SDS011;13793;55.388;37.844;2022-08-19T07:28:01;6.30;;;3.70;;
26014;SDS011;13793;55.388;37.844;2022-08-19T07:30:32;4.90;;;3.10;;
26014;SDS011;13793;55.388;37.844;2022-08-19T07:33:05;7.15;;;3.50;;
26014;SDS011;13793;55.388;37.844;2022-08-19T07:35:35;10.65;;;4.05;;
26014;SDS011;13793;55.388;37.844;2022-08-19T07:38:07;7.60;;;3.87;;
26014;SDS011;13793;55.388;37.844;2022-08-19T07:40:38;6.08;;;3.45;;
26014;SDS011;13793;55.388;37.844;2022-08-19T07:43:09;7.62;;;3.77;;
26014;SDS011;13793;55.388;37.844;2022-08-19T07:45:40;6.45;;;3.42;;
26014;SDS011;13793;55.388;37.844;2022-08-19T07:48:11;5.35;;;3.40;;
26014;SDS011;13793;55.388;37.844;2022-08-19T07:50:42;6.17;;;3.30;;
26014;SDS011;13793;55.388;37.844;2022-08-19T07:53:13;5.80;;;3.45;;
26014;SDS011;13793;55.388;37.844;2022-08-19T07:55:44;8.45;;;3.35;;
26014;SDS011;13793;55.388;37.844;2022-08-19T07:58:16;8.80;;;3.30;;
26014;SDS011;13793;55.388;37.844;2022-08-19T08:00:48;7.05;;;3.30;;
26014;SDS011;13793;55.388;37.844;2022-08-19T08:03:20;4.83;;;3.00;;
26014;SDS011;13793;55.388;37.844;2022-08-19T08:05:55;6.30;;;3.17;;
26014;SDS011;13793;55.388;37.844;2022-08-19T08:08:45;10.63;;;3.35;;
26014;SDS011;13793;55.388;37.844;2022-08-19T08:11:34;5.75;;;3.40;;
26014;SDS011;13793;55.388;37.844;2022-08-19T08:14:05;11.10;;;3.37;;
26014;SDS011;13793;55.388;37.844;2022-08-19T08:16:36;8.48;;;3.10;;
26014;SDS011;13793;55.388;37.844;2022-08-19T08:19:07;6.25;;;3.30;;
26014;SDS011;13793;55.388;37.844;2022-08-19T08:21:42;5.00;;;2.80;;
26014;SDS011;13793;55.388;37.844;2022-08-19T08:24:13;4.90;;;3.35;;
26014;SDS011;13793;55.388;37.844;2022-08-19T08:26:44;3.42;;;3.00;;
26014;SDS011;13793;55.388;37.844;2022-08-19T08:29:15;5.83;;;3.33;;
26014;SDS011;13793;55.388;37.844;2022-08-19T08:31:47;6.70;;;3.17;;
26014;SDS011;13793;55.388;37.844;2022-08-19T08:34:19;3.80;;;3.12;;
26014;SDS011;13793;55.388;37.844;2022-08-19T08:36:49;6.10;;;3.33;;
26014;SDS011;13793;55.388;37.844;2022-08-19T08:39:20;6.92;;;3.22;;
26014;SDS011;13793;55.388;37.844;2022-08-19T08:44:43;8.70;;;3.02;;
26014;SDS011;13793;55.388;37.844;2022-08-19T08:47:34;6.20;;;2.90;;
26014;SDS011;13793;55.388;37.844;2022-08-19T08:50:10;8.78;;;3.00;;
26014;SDS011;13793;55.388;37.844;2022-08-19T08:52:44;8.65;;;2.92;;
26014;SDS011;13793;55.388;37.844;2022-08-19T08:55:22;7.53;;;2.80;;
26014;SDS011;13793;55.388;37.844;2022-08-19T09:00:28;4.47;;;3.05;;
26014;SDS011;13793;55.388;37.844;2022-08-19T09:02:59;5.53;;;3.00;;
26014;SDS011;13793;55.388;37.844;2022-08-19T09:08:20;6.15;;;2.62;;
26014;SDS011;13793;55.388;37.844;2022-08-19T09:11:08;4.67;;;2.70;;
26014;SDS011;13793;55.388;37.844;2022-08-19T09:13:55;6.80;;;2.77;;
26014;SDS011;13793;55.388;37.844;2022-08-19T09:16:22;3.05;;;2.62;;
26014;SDS011;13793;55.388;37.844;2022-08-19T09:18:57;8.35;;;2.87;;
26014;SDS011;13793;55.388;37.844;2022-08-19T09:21:28;7.58;;;3.30;;
26014;SDS011;13793;55.388;37.844;2022-08-19T09:23:59;7.37;;;2.83;;
26014;SDS011;13793;55.388;37.844;2022-08-19T09:26:30;6.75;;;2.90;;
26014;SDS011;13793;55.388;37.844;2022-08-19T09:29:07;7.33;;;2.85;;
26014;SDS011;13793;55.388;37.844;2022-08-19T09:31:38;3.50;;;2.70;;
26014;SDS011;13793;55.388;37.844;2022-08-19T09:34:09;10.50;;;3.60;;
26014;SDS011;13793;55.388;37.844;2022-08-19T09:36:40;6.90;;;2.72;;
26014;SDS011;13793;55.388;37.844;2022-08-19T09:39:12;5.92;;;3.00;;
26014;SDS011;13793;55.388;37.844;2022-08-19T09:41:43;9.58;;;4.00;;
26014;SDS011;13793;55.388;37.844;2022-08-19T09:44:14;6.40;;;3.20;;
26014;SDS011;13793;55.388;37.844;2022-08-19T09:46:44;11.08;;;3.80;;
26014;SDS011;13793;55.388;37.844;2022-08-19T09:49:21;7.05;;;3.60;;
26014;SDS011;13793;55.388;37.844;2022-08-19T09:51:52;6.90;;;3.00;;
26014;SDS011;13793;55.388;37.844;2022-08-19T09:54:24;3.33;;;2.85;;
26014;SDS011;13793;55.388;37.844;2022-08-19T09:56:57;4.78;;;2.50;;
26014;SDS011;13793;55.388;37.844;2022-08-19T09:59:29;5.35;;;2.80;;
26014;SDS011;13793;55.388;37.844;2022-08-19T10:01:59;12.45;;;3.62;;
26014;SDS011;13793;55.388;37.844;2022-08-19T10:04:30;7.78;;;3.50;;
26014;SDS011;13793;55.388;37.844;2022-08-19T10:07:18;20.68;;;4.25;;
26014;SDS011;13793;55.388;37.844;2022-08-19T10:09:50;4.80;;;2.30;;
26014;SDS011;13793;55.388;37.844;2022-08-19T10:12:21;9.55;;;2.83;;
26014;SDS011;13793;55.388;37.844;2022-08-19T10:14:51;8.98;;;2.30;;
26014;SDS011;13793;55.388;37.844;2022-08-19T10:17:22;13.45;;;4.22;;
26014;SDS011;13793;55.388;37.844;2022-08-19T10:19:54;21.15;;;4.20;;
26014;SDS011;13793;55.388;37.844;2022-08-19T10:22:25;12.55;;;3.02;;
26014;SDS011;13793;55.388;37.844;2022-08-19T10:24:58;6.05;;;2.60;;
26014;SDS011;13793;55.388;37.844;2022-08-19T10:27:29;4.65;;;2.25;;
26014;SDS011;13793;55.388;37.844;2022-08-19T10:30:02;4.50;;;2.65;;
26014;SDS011;13793;55.388;37.844;2022-08-19T10:32:34;6.53;;;2.58;;
26014;SDS011;13793;55.388;37.844;2022-08-19T10:35:06;7.33;;;2.22;;
26014;SDS011;13793;55.388;37.844;2022-08-19T10:37:37;3.67;;;1.87;;
26014;SDS011;13793;55.388;37.844;2022-08-19T10:40:08;4.90;;;2.05;;
26014;SDS011;13793;55.388;37.844;2022-08-19T10:42:39;5.40;;;1.77;;
26014;SDS011;13793;55.388;37.844;2022-08-19T10:45:10;6.40;;;2.30;;
26014;SDS011;13793;55.388;37.844;2022-08-19T10:47:41;4.85;;;2.40;;
26014;SDS011;13793;55.388;37.844;2022-08-19T10:50:12;6.87;;;2.20;;
26014;SDS011;13793;55.388;37.844;2022-08-19T10:53:03;5.92;;;2.20;;
26014;SDS011;13793;55.388;37.844;2022-08-19T10:55:33;3.87;;;1.80;;
26014;SDS011;13793;55.388;37.844;2022-08-19T10:58:22;7.28;;;2.40;;
26014;SDS011;13793;55.388;37.844;2022-08-19T11:00:55;3.58;;;2.42;;
26014;SDS011;13793;55.388;37.844;2022-08-19T11:03:27;4.62;;;2.35;;
26014;SDS011;13793;55.388;37.844;2022-08-19T11:06:17;7.20;;;2.27;;
26014;SDS011;13793;55.388;37.844;2022-08-19T11:08:48;5.55;;;2.20;;
26014;SDS011;13793;55.388;37.844;2022-08-19T11:11:19;6.12;;;2.08;;
26014;SDS011;13793;55.388;37.844;2022-08-19T11:13:50;8.98;;;2.40;;
26014;SDS011;13793;55.388;37.844;2022-08-19T11:16:22;4.95;;;2.55;;
26014;SDS011;13793;55.388;37.844;2022-08-19T11:18:54;5.85;;;2.22;;
26014;SDS011;13793;55.388;37.844;2022-08-19T11:21:29;2.98;;;2.60;;
26014;SDS011;13793;55.388;37.844;2022-08-19T11:24:08;6.08;;;2.45;;
26014;SDS011;13793;55.388;37.844;2022-08-19T11:26:39;6.83;;;2.73;;
26014;SDS011;13793;55.388;37.844;2022-08-19T11:29:12;4.37;;;3.20;;
26014;SDS011;13793;55.388;37.844;2022-08-19T11:31:44;7.47;;;2.90;;
26014;SDS011;13793;55.388;37.844;2022-08-19T11:34:17;6.83;;;2.85;;
26014;SDS011;13793;55.388;37.844;2022-08-19T11:36:50;6.22;;;2.70;;
26014;SDS011;13793;55.388;37.844;2022-08-19T11:39:21;5.00;;;2.75;;
26014;SDS011;13793;55.388;37.844;2022-08-19T11:41:52;7.75;;;3.40;;
26014;SDS011;13793;55.388;37.844;2022-08-19T11:44:23;4.87;;;3.60;;
26014;SDS011;13793;55.388;37.844;2022-08-19T11:46:54;7.45;;;4.30;;
26014;SDS011;13793;55.388;37.844;2022-08-19T11:49:25;8.75;;;4.22;;
26014;SDS011;13793;55.388;37.844;2022-08-19T11:51:57;7.97;;;4.50;;
26014;SDS011;13793;55.388;37.844;2022-08-19T11:54:27;8.60;;;4.08;;
26014;SDS011;13793;55.388;37.844;2022-08-19T11:56:59;6.42;;;3.80;;
26014;SDS011;13793;55.388;37.844;2022-08-19T11:59:31;9.48;;;4.08;;
26014;SDS011;13793;55.388;37.844;2022-08-19T12:02:02;5.22;;;3.20;;
26014;SDS011;13793;55.388;37.844;2022-08-19T12:04:35;7.72;;;3.12;;
26014;SDS011;13793;55.388;37.844;2022-08-19T12:07:06;4.15;;;3.08;;
26014;SDS011;13793;55.388;37.844;2022-08-19T12:09:37;5.92;;;3.33;;
26014;SDS011;13793;55.388;37.844;2022-08-19T12:12:08;5.85;;;3.10;;
26014;SDS011;13793;55.388;37.844;2022-08-19T12:14:39;5.40;;;3.30;;
26014;SDS011;13793;55.388;37.844;2022-08-19T12:17:12;4.37;;;3.20;;
26014;SDS011;13793;55.388;37.844;2022-08-19T12:19:43;7.20;;;3.47;;
26014;SDS011;13793;55.388;37.844;2022-08-19T12:22:17;10.05;;;3.45;;
26014;SDS011;13793;55.388;37.844;2022-08-19T12:24:49;7.17;;;2.80;;
26014;SDS011;13793;55.388;37.844;2022-08-19T12:27:22;7.55;;;3.10;;
26014;SDS011;13793;55.388;37.844;2022-08-19T12:29:53;9.03;;;2.95;;
26014;SDS011;13793;55.388;37.844;2022-08-19T12:32:23;8.38;;;3.55;;
26014;SDS011;13793;55.388;37.844;2022-08-19T12:34:57;5.83;;;4.05;;
26014;SDS011;13793;55.388;37.844;2022-08-19T12:37:29;11.57;;;4.45;;
26014;SDS011;13793;55.388;37.844;2022-08-19T12:40:01;7.33;;;3.98;;
26014;SDS011;13793;55.388;37.844;2022-08-19T12:42:31;8.63;;;3.60;;
26014;SDS011;13793;55.388;37.844;2022-08-19T12:45:02;9.65;;;4.20;;
26014;SDS011;13793;55.388;37.844;2022-08-19T12:47:33;5.87;;;4.03;;
26014;SDS011;13793;55.388;37.844;2022-08-19T12:50:05;8.88;;;4.85;;
26014;SDS011;13793;55.388;37.844;2022-08-19T12:52:37;7.62;;;4.50;;
26014;SDS011;13793;55.388;37.844;2022-08-19T12:55:11;9.00;;;4.70;;
26014;SDS011;13793;55.388;37.844;2022-08-19T12:57:42;9.63;;;5.08;;
26014;SDS011;13793;55.388;37.844;2022-08-19T13:00:14;8.28;;;4.53;;
26014;SDS011;13793;55.388;37.844;2022-08-19T13:02:45;7.47;;;4.65;;
26014;SDS011;13793;55.388;37.844;2022-08-19T13:05:20;11.00;;;5.25;;
26014;SDS011;13793;55.388;37.844;2022-08-19T13:07:52;6.37;;;5.50;;
26014;SDS011;13793;55.388;37.844;2022-08-19T13:10:27;8.38;;;5.78;;
26014;SDS011;13793;55.388;37.844;2022-08-19T13:13:05;9.30;;;5.62;;
26014;SDS011;13793;55.388;37.844;2022-08-19T13:15:38;8.03;;;5.90;;
26014;SDS011;13793;55.388;37.844;2022-08-19T13:18:13;8.83;;;6.10;;
26014;SDS011;13793;55.388;37.844;2022-08-19T13:20:44;7.55;;;6.17;;
26014;SDS011;13793;55.388;37.844;2022-08-19T13:23:15;7.80;;;6.05;;
26014;SDS011;13793;55.388;37.844;2022-08-19T13:25:54;11.93;;;6.72;;
26014;SDS011;13793;55.388;37.844;2022-08-19T13:28:28;10.05;;;6.03;;
26014;SDS011;13793;55.388;37.844;2022-08-19T13:31:02;8.23;;;5.75;;
26014;SDS011;13793;55.388;37.844;2022-08-19T13:33:51;8.43;;;5.40;;
26014;SDS011;13793;55.388;37.844;2022-08-19T13:36:22;8.68;;;5.40;;
26014;SDS011;13793;55.388;37.844;2022-08-19T13:38:52;9.00;;;6.08;;
26014;SDS011;13793;55.388;37.844;2022-08-19T13:41:26;17.17;;;12.55;;
26014;SDS011;13793;55.388;37.844;2022-08-19T13:43:56;25.48;;;18.62;;
26014;SDS011;13793;55.388;37.844;2022-08-19T13:46:30;27.00;;;20.43;;
26014;SDS011;13793;55.388;37.844;2022-08-19T13:49:01;25.15;;;20.20;;
26014;SDS011;13793;55.388;37.844;2022-08-19T13:51:32;23.90;;;20.05;;
26014;SDS011;13793;55.388;37.844;2022-08-19T13:54:03;27.05;;;16.45;;
26014;SDS011;13793;55.388;37.844;2022-08-19T13:56:34;18.70;;;15.53;;
26014;SDS011;13793;55.388;37.844;2022-08-19T13:59:06;18.77;;;14.23;;
26014;SDS011;13793;55.388;37.844;2022-08-19T14:01:37;16.45;;;13.53;;
26014;SDS011;13793;55.388;37.844;2022-08-19T14:04:08;16.32;;;13.38;;
26014;SDS011;13793;55.388;37.844;2022-08-19T14:06:41;14.80;;;12.85;;
26014;SDS011;13793;55.388;37.844;2022-08-19T14:09:11;13.98;;;12.28;;
26014;SDS011;13793;55.388;37.844;2022-08-19T14:11:42;13.88;;;11.73;;
26014;SDS011;13793;55.388;37.844;2022-08-19T14:14:14;14.10;;;10.58;;
26014;SDS011;13793;55.388;37.844;2022-08-19T14:16:44;17.70;;;9.95;;
26014;SDS011;13793;55.388;37.844;2022-08-19T14:19:15;12.40;;;9.00;;
26014;SDS011;13793;55.388;37.844;2022-08-19T14:21:48;13.45;;;8.48;;
26014;SDS011;13793;55.388;37.844;2022-08-19T14:24:19;15.50;;;9.98;;
26014;SDS011;13793;55.388;37.844;2022-08-19T14:26:54;12.80;;;8.83;;
26014;SDS011;13793;55.388;37.844;2022-08-19T14:29:25;14.80;;;11.10;;
26014;SDS011;13793;55.388;37.844;2022-08-19T14:31:57;19.05;;;11.83;;
26014;SDS011;13793;55.388;37.844;2022-08-19T14:34:28;16.27;;;11.57;;
26014;SDS011;13793;55.388;37.844;2022-08-19T14:37:00;11.48;;;10.00;;
26014;SDS011;13793;55.388;37.844;2022-08-19T14:39:30;13.62;;;9.88;;
26014;SDS011;13793;55.388;37.844;2022-08-19T14:42:05;11.38;;;9.53;;
26014;SDS011;13793;55.388;37.844;2022-08-19T14:44:36;10.23;;;9.20;;
26014;SDS011;13793;55.388;37.844;2022-08-19T14:47:07;11.95;;;8.70;;
26014;SDS011;13793;55.388;37.844;2022-08-19T14:49:38;12.93;;;8.80;;
26014;SDS011;13793;55.388;37.844;2022-08-19T14:52:08;11.10;;;8.10;;
26014;SDS011;13793;55.388;37.844;2022-08-19T14:54:39;10.25;;;7.53;;
26014;SDS011;13793;55.388;37.844;2022-08-19T14:57:13;13.53;;;8.15;;
26014;SDS011;13793;55.388;37.844;2022-08-19T14:59:44;11.90;;;7.28;;
26014;SDS011;13793;55.388;37.844;2022-08-19T15:02:17;12.03;;;6.62;;
26014;SDS011;13793;55.388;37.844;2022-08-19T15:04:49;10.43;;;6.35;;
26014;SDS011;13793;55.388;37.844;2022-08-19T15:07:20;12.00;;;6.03;;
26014;SDS011;13793;55.388;37.844;2022-08-19T15:09:51;11.03;;;6.00;;